This is the latest recevied weather packets stored in our database for station/object W0AKO. If no packets are shown the sender has not sent any weather packets the latest 10 day(s).
| Time | Temp. | Humidity | Pressure | Rain* | Wind** | Luminosity | Snow |
|---|---|---|---|---|---|---|---|
| 1777132899 | 16.67° C | 10% | 1009.9 hPa | 0 mm | - | 256 W/m² | - |
| 1777132596 | 16.67° C | 10% | 1009.8 hPa | 0 mm | - | 236 W/m² | - |
| 1777132292 | 16.67° C | 10% | 1009.8 hPa | 0 mm | - | 219 W/m² | - |
| 1777131989 | 16.67° C | 10% | 1009.7 hPa | 0 mm | - | 225 W/m² | - |
| 1777131687 | 16.67° C | 10% | 1009.9 hPa | 0 mm | - | 240 W/m² | - |
| 1777131381 | 16.11° C | 10% | 1009.7 hPa | 0 mm | - | 232 W/m² | - |
| 1777131081 | 16.11° C | 10% | 1009.8 hPa | 0 mm | - | 189 W/m² | - |
| 1777130777 | 16.11° C | 10% | 1009.7 hPa | 0 mm | - | 183 W/m² | - |
| 1777130473 | 16.11° C | 10% | 1009.9 hPa | 0 mm | - | 168 W/m² | - |
| 1777130169 | 16.67° C | 10% | 1009.8 hPa | 0 mm | - | 269 W/m² | - |
| 1777129865 | 16.11° C | 10% | 1009.9 hPa | 0 mm | - | 209 W/m² | - |
| 1777129561 | 15.56° C | 10% | 1009.7 hPa | 0 mm | - | 249 W/m² | - |
| 1777129260 | 15.56° C | 10% | 1009.8 hPa | 0 mm | - | 114 W/m² | - |
| 1777128956 | 15° C | 10% | 1009.6 hPa | 0 mm | - | 202 W/m² | - |
| 1777128652 | 15° C | 10% | 1009.8 hPa | 0 mm | - | 115 W/m² | - |
| 1777128350 | 14.44° C | 10% | 1009.5 hPa | 0 mm | - | 184 W/m² | - |
| 1777128046 | 14.44° C | 10% | 1009.9 hPa | 0 mm | - | 134 W/m² | - |
| 1777127744 | 15° C | 10% | 1009.8 hPa | 0 mm | - | 110 W/m² | - |
| 1777127441 | 13.89° C | 10% | 1009.6 hPa | 0 mm | - | 149 W/m² | - |
| 1777127137 | 13.33° C | 10% | 1009.8 hPa | 0 mm | - | 122 W/m² | - |
| 1777126833 | 13.33° C | 10% | 1009.6 hPa | 0 mm | - | 130 W/m² | - |
| 1777126529 | 13.89° C | 10% | 1009.8 hPa | 0 mm | - | 116 W/m² | - |
| 1777126225 | 14.44° C | 10% | 1009.6 hPa | 0 mm | - | 88 W/m² | - |
| 1777125921 | 13.89° C | 10% | 1009.7 hPa | 0 mm | - | 108 W/m² | - |
| 1777125617 | 13.89° C | 10% | 1009.6 hPa | 0 mm | - | 108 W/m² | - |
* Rain latest hour (hover to see other rain measurements)
** Current wind speed in m/s (hover to see current wind gust speed)